Time;durP1;ratioP1;P1;durP2;ratioP2;P2;SDS_P1;SDS_P2;PMS_P1;PMS_P2;Temp;Humidity;BMP_temperature;BMP_pressure;BME280_temperature;BME280_humidity;BME280_pressure;Samples;Min_cycle;Max_cycle;Signal;HPM_P1;HPM_P2
2022/07/30 00:00:57;;;;;;;4.38;3.20;;;;;;;16.99;71.61;101000.81;5003227;27;20443;-67
2022/07/30 00:03:22;;;;;;;6.55;3.80;;;;;;;16.98;72.08;100999.13;4992721;27;20016;-67
2022/07/30 00:05:48;;;;;;;4.50;3.30;;;;;;;16.78;72.98;101004.00;5006409;27;20309;-67
2022/07/30 00:08:13;;;;;;;3.63;3.15;;;;;;;16.82;72.98;100996.47;5010142;27;20410;-67
2022/07/30 00:10:39;;;;;;;4.82;3.45;;;;;;;16.88;72.84;100992.28;5023938;27;20424;-68
2022/07/30 00:13:04;;;;;;;4.43;3.25;;;;;;;16.80;73.22;100999.31;5026945;27;20421;-67
2022/07/30 00:15:30;;;;;;;3.47;3.25;;;;;;;16.64;73.57;100991.38;5009688;27;21037;-66
2022/07/30 00:17:55;;;;;;;3.67;3.15;;;;;;;16.63;73.80;101000.38;5040775;27;20035;-66
2022/07/30 00:20:21;;;;;;;3.83;3.50;;;;;;;16.69;73.30;100994.34;5024244;27;20020;-67
2022/07/30 00:22:46;;;;;;;3.72;3.30;;;;;;;16.61;73.61;100997.03;5010152;27;20893;-66
2022/07/30 00:25:12;;;;;;;4.15;3.75;;;;;;;16.52;74.37;100992.72;5018807;27;20045;-65
2022/07/30 00:27:38;;;;;;;4.57;3.70;;;;;;;16.46;74.93;100994.22;5024529;27;20024;-65
2022/07/30 00:30:04;;;;;;;3.80;3.55;;;;;;;16.44;74.86;100983.72;5013572;27;20036;-67
2022/07/30 00:32:29;;;;;;;4.15;3.75;;;;;;;16.37;74.86;100979.22;5004205;28;20415;-65
2022/07/30 00:34:55;;;;;;;4.72;3.33;;;;;;;16.43;74.73;100982.03;5019033;28;20013;-65
2022/07/30 00:37:20;;;;;;;4.40;3.70;;;;;;;16.35;74.95;100979.38;5024042;27;20043;-67
2022/07/30 00:39:46;;;;;;;6.07;3.80;;;;;;;16.29;75.01;100983.56;5004978;28;20013;-67
2022/07/30 00:42:11;;;;;;;6.03;3.50;;;;;;;16.25;75.24;100984.06;5007276;28;20013;-67
2022/07/30 00:44:37;;;;;;;4.57;3.95;;;;;;;16.18;75.52;100986.56;5006546;28;20009;-68
2022/07/30 00:47:02;;;;;;;4.47;3.50;;;;;;;16.14;76.11;100991.44;5004258;28;20017;-67
2022/07/30 00:49:28;;;;;;;3.83;3.53;;;;;;;16.05;76.39;100981.75;5000693;28;20024;-67
2022/07/30 00:51:53;;;;;;;4.00;3.70;;;;;;;16.11;76.25;100980.25;5001264;28;20263;-67
2022/07/30 00:54:20;;;;;;;3.70;3.45;;;;;;;16.06;76.36;100983.41;5003855;28;20351;-67
2022/07/30 00:56:46;;;;;;;3.88;3.58;;;;;;;16.05;76.48;100989.75;4994694;28;20233;-67
2022/07/30 00:59:12;;;;;;;4.13;3.65;;;;;;;15.98;76.79;100988.75;5002845;28;20005;-67
2022/07/30 01:01:37;;;;;;;3.90;3.50;;;;;;;15.92;77.16;100982.25;4990543;28;20028;-67
2022/07/30 01:04:03;;;;;;;4.13;3.75;;;;;;;15.94;77.08;100985.56;4982011;28;20239;-67
2022/07/30 01:06:29;;;;;;;3.80;3.60;;;;;;;15.83;77.24;100988.56;4991107;28;20345;-67
2022/07/30 01:08:54;;;;;;;4.63;3.85;;;;;;;15.76;77.66;100984.84;4992968;28;19997;-67
2022/07/30 01:11:21;;;;;;;4.10;3.80;;;;;;;15.72;77.85;100992.38;5007154;27;20111;-67
2022/07/30 01:13:46;;;;;;;4.70;4.18;;;;;;;15.63;78.15;100982.69;5005075;27;20043;-67
2022/07/30 01:16:12;;;;;;;6.25;3.65;;;;;;;15.65;78.17;100991.34;5009971;27;20431;-66
2022/07/30 01:21:28;;;;;;;4.13;3.80;;;;;;;15.63;78.29;100982.69;5014150;27;20789;-67
2022/07/30 01:23:54;;;;;;;4.30;3.90;;;;;;;15.58;78.17;100990.31;5020868;27;20017;-67
2022/07/30 01:26:19;;;;;;;4.40;4.00;;;;;;;15.63;77.68;100994.16;4994565;27;20242;-67
2022/07/30 01:28:48;;;;;;;5.07;3.80;;;;;;;15.68;77.00;100991.03;5008760;27;20764;-67
2022/07/30 01:31:13;;;;;;;4.43;3.72;;;;;;;15.64;77.22;100997.69;5012040;27;20413;-67
2022/07/30 01:33:40;;;;;;;4.78;3.95;;;;;;;15.59;77.39;101000.00;5015572;27;20622;-68
2022/07/30 01:36:07;;;;;;;4.20;3.80;;;;;;;15.54;77.56;100989.84;5001873;27;20099;-67
2022/07/30 01:38:33;;;;;;;4.05;3.72;;;;;;;15.52;77.64;100999.00;5001071;27;20085;-67
2022/07/30 01:40:58;;;;;;;4.10;3.90;;;;;;;15.42;78.01;100986.63;4990825;27;20017;-67
2022/07/30 01:43:24;;;;;;;4.20;3.90;;;;;;;15.42;78.30;101002.63;5012153;27;20330;-67
2022/07/30 01:45:49;;;;;;;4.18;3.92;;;;;;;15.31;78.62;100994.09;5013737;27;20805;-67
2022/07/30 01:48:17;;;;;;;4.65;4.13;;;;;;;15.28;79.02;101001.44;4991760;27;20415;-67
2022/07/30 01:50:44;;;;;;;5.78;3.92;;;;;;;15.24;79.27;101005.41;5014503;27;20021;-67
2022/07/30 01:53:11;;;;;;;6.75;3.88;;;;;;;15.20;79.44;101008.53;4993942;27;20021;-67
2022/07/30 01:55:38;;;;;;;4.35;3.95;;;;;;;15.12;79.52;101004.03;4996084;27;20324;-67
2022/07/30 01:58:05;;;;;;;4.32;4.00;;;;;;;15.09;80.05;101018.50;5012347;27;20352;-67
2022/07/30 02:00:30;;;;;;;7.85;4.30;;;;;;;15.01;80.07;101010.47;4997206;27;20194;-67
2022/07/30 02:02:56;;;;;;;5.38;3.95;;;;;;;15.17;79.89;101019.53;5010413;27;20806;-67
2022/07/30 02:05:22;;;;;;;4.75;3.60;;;;;;;15.17;79.73;101012.34;4995902;27;20383;-67
2022/07/30 02:08:05;;;;;;;3.80;3.55;;;;;;;15.13;79.55;101012.84;5010152;27;20884;-67
2022/07/30 02:10:45;;;;;;;4.30;3.80;;;;;;;15.02;79.92;101008.66;5012764;27;20373;-66
2022/07/30 02:13:11;;;;;;;6.55;4.40;;;;;;;14.99;80.14;101016.94;5007813;27;20039;-67
2022/07/30 02:15:51;;;;;;;4.22;3.95;;;;;;;14.88;80.47;101007.41;5030150;27;20016;-65
2022/07/30 02:18:30;;;;;;;4.40;4.00;;;;;;;14.92;80.19;101011.44;5010903;27;20493;-66
2022/07/30 02:20:59;;;;;;;4.60;4.10;;;;;;;14.94;80.02;101012.09;5015000;27;20059;-67
2022/07/30 02:23:25;;;;;;;5.90;4.03;;;;;;;14.89;80.31;101022.38;5000924;27;20454;-68
2022/07/30 02:25:50;;;;;;;5.25;3.88;;;;;;;14.81;80.34;101019.69;4998936;27;20486;-67
2022/07/30 02:28:17;;;;;;;4.18;3.85;;;;;;;14.80;80.54;101018.84;4998564;27;20490;-67
2022/07/30 02:30:46;;;;;;;4.35;3.90;;;;;;;14.80;80.53;101023.34;4999699;27;20035;-67
2022/07/30 02:33:11;;;;;;;4.00;3.70;;;;;;;14.80;80.67;101023.34;4996379;27;20064;-67
2022/07/30 02:35:37;;;;;;;4.78;3.92;;;;;;;14.80;80.33;101018.84;5017702;27;20024;-67
2022/07/30 02:38:03;;;;;;;4.10;3.78;;;;;;;14.86;80.46;101028.03;5015636;27;20020;-67
2022/07/30 02:40:28;;;;;;;4.97;3.58;;;;;;;14.81;80.06;101019.69;5043103;27;20004;-68
2022/07/30 02:42:53;;;;;;;4.20;3.90;;;;;;;14.70;80.47;101020.78;5027228;27;20017;-67
2022/07/30 02:45:19;;;;;;;5.10;4.07;;;;;;;14.74;80.21;101027.47;5007992;27;20161;-67
2022/07/30 02:47:46;;;;;;;3.90;3.60;;;;;;;14.68;80.37;101028.94;4989981;27;20017;-67
2022/07/30 02:50:11;;;;;;;3.75;3.50;;;;;;;14.80;79.70;101026.84;5011263;27;20120;-67
2022/07/30 02:52:38;;;;;;;3.92;3.58;;;;;;;14.72;79.86;101026.78;4987664;27;20025;-67
2022/07/30 02:55:03;;;;;;;3.88;3.60;;;;;;;14.76;79.94;101022.81;4991241;27;20033;-67
2022/07/30 02:57:29;;;;;;;4.35;3.75;;;;;;;14.58;80.25;101025.50;5009973;27;20081;-67
2022/07/30 02:59:55;;;;;;;4.00;3.67;;;;;;;14.66;80.16;101028.25;5007316;27;20016;-67
2022/07/30 03:02:20;;;;;;;7.00;3.85;;;;;;;14.70;80.46;101031.44;4986926;27;20021;-67
2022/07/30 03:04:46;;;;;;;3.85;3.55;;;;;;;14.68;80.57;101036.94;4996316;27;20123;-67
2022/07/30 03:07:11;;;;;;;4.20;3.83;;;;;;;14.57;80.58;101038.00;4991135;27;20401;-67
2022/07/30 03:09:37;;;;;;;3.83;3.50;;;;;;;14.57;80.85;101039.81;5052089;27;20013;-67
2022/07/30 03:12:04;;;;;;;3.78;3.47;;;;;;;14.52;80.96;101040.28;5008097;27;20768;-67
2022/07/30 03:14:29;;;;;;;3.72;3.40;;;;;;;14.52;81.19;101034.13;4995717;27;20020;-67
2022/07/30 03:16:56;;;;;;;4.95;4.00;;;;;;;14.55;80.76;101036.47;4993439;27;20292;-67
2022/07/30 03:19:21;;;;;;;4.00;3.70;;;;;;;14.51;80.79;101037.75;4996639;27;20254;-67
2022/07/30 03:21:47;;;;;;;3.97;3.78;;;;;;;14.62;80.52;101037.53;4990149;27;20996;-67
2022/07/30 03:24:12;;;;;;;3.78;3.58;;;;;;;14.56;80.42;101043.47;5027434;27;20131;-67
2022/07/30 03:26:38;;;;;;;4.07;3.67;;;;;;;14.47;80.80;101039.06;5007341;27;20027;-68
2022/07/30 03:29:03;;;;;;;3.75;3.50;;;;;;;14.50;80.54;101044.09;4995577;27;20100;-67
2022/07/30 03:31:29;;;;;;;4.60;3.78;;;;;;;14.48;80.82;101041.59;4990850;27;20374;-67
2022/07/30 03:33:54;;;;;;;4.13;3.70;;;;;;;14.38;80.71;101041.69;5011557;27;20158;-68
2022/07/30 03:36:20;;;;;;;4.20;3.78;;;;;;;14.34;80.79;101045.66;4987248;27;20092;-67
2022/07/30 03:38:46;;;;;;;4.15;3.75;;;;;;;14.29;81.16;101036.47;4997283;27;20016;-68
2022/07/30 03:41:11;;;;;;;4.00;3.70;;;;;;;14.26;81.19;101043.75;4987960;27;20843;-67
2022/07/30 03:43:37;;;;;;;5.63;4.00;;;;;;;14.20;81.80;101048.84;4995120;27;20904;-66
2022/07/30 03:46:02;;;;;;;4.18;3.95;;;;;;;14.13;81.97;101047.78;4988415;27;20453;-67
2022/07/30 03:48:28;;;;;;;3.95;3.65;;;;;;;14.16;81.98;101047.50;5015588;27;20354;-67
2022/07/30 03:50:53;;;;;;;6.97;3.95;;;;;;;14.18;81.97;101050.81;4987194;27;20355;-68
2022/07/30 03:53:19;;;;;;;5.90;3.88;;;;;;;14.11;81.93;101055.09;4993749;27;20419;-67
2022/07/30 03:55:44;;;;;;;4.32;3.92;;;;;;;14.12;82.11;101048.78;5006144;27;20229;-67
2022/07/30 03:58:10;;;;;;;5.35;4.03;;;;;;;14.09;82.46;101053.41;5010067;27;20118;-65
2022/07/30 04:00:37;;;;;;;4.97;4.13;;;;;;;14.08;82.49;101057.06;4994649;27;20020;-66
2022/07/30 04:03:03;;;;;;;4.47;4.07;;;;;;;14.14;82.19;101066.25;4993166;27;20156;-67
2022/07/30 04:05:28;;;;;;;4.55;4.05;;;;;;;14.09;82.30;101058.72;5000764;27;20809;-67
2022/07/30 04:07:54;;;;;;;4.38;3.97;;;;;;;14.10;82.36;101051.59;4986506;27;20350;-67
2022/07/30 04:10:19;;;;;;;5.00;4.60;;;;;;;13.98;82.67;101064.28;4990088;27;20168;-67
2022/07/30 04:12:44;;;;;;;4.50;4.10;;;;;;;13.98;82.89;101066.13;5003106;27;20302;-66
2022/07/30 04:15:10;;;;;;;4.68;4.20;;;;;;;14.04;82.44;101070.81;5024039;27;20315;-67
2022/07/30 04:17:38;;;;;;;4.93;4.60;;;;;;;14.08;82.47;101078.34;5004122;27;20017;-67
2022/07/30 04:20:08;;;;;;;4.53;4.22;;;;;;;14.02;82.43;101067.50;5006568;27;20764;-67
2022/07/30 04:22:35;;;;;;;4.30;4.00;;;;;;;14.03;82.75;101072.66;5013586;27;20021;-67
2022/07/30 04:25:07;;;;;;;4.30;4.00;;;;;;;14.05;82.85;101072.50;5022018;27;20031;-66
2022/07/30 04:27:32;;;;;;;4.60;4.30;;;;;;;14.05;82.72;101076.00;4991697;27;20020;-67
2022/07/30 04:29:58;;;;;;;4.68;4.28;;;;;;;14.16;82.45;101084.75;5011000;27;20414;-67
2022/07/30 04:32:24;;;;;;;4.82;4.43;;;;;;;14.11;82.56;101081.69;4993748;27;20402;-67
2022/07/30 04:34:51;;;;;;;4.78;4.32;;;;;;;14.15;82.53;101089.22;5010866;27;20342;-66
2022/07/30 04:37:18;;;;;;;5.35;4.85;;;;;;;14.14;82.89;101097.38;5008213;27;20017;-67
2022/07/30 04:39:43;;;;;;;5.68;4.60;;;;;;;14.19;82.87;101095.91;5012898;27;20009;-67
2022/07/30 04:42:09;;;;;;;4.80;4.40;;;;;;;14.17;82.43;101095.25;5009827;27;20260;-66
2022/07/30 04:44:34;;;;;;;4.88;4.45;;;;;;;14.26;82.55;101101.47;5012379;27;20428;-66
2022/07/30 04:46:59;;;;;;;6.00;4.68;;;;;;;14.29;82.49;101101.16;4993729;27;20028;-66
2022/07/30 04:49:25;;;;;;;5.63;4.40;;;;;;;14.33;82.31;101109.69;5010403;27;20028;-67
2022/07/30 04:51:50;;;;;;;6.05;4.70;;;;;;;14.36;82.28;101107.56;4994630;27;20513;-67
2022/07/30 04:54:16;;;;;;;5.38;4.85;;;;;;;14.38;82.65;101105.59;5011426;27;20144;-67
2022/07/30 04:56:43;;;;;;;4.78;4.47;;;;;;;14.48;82.40;101115.31;4992141;27;20020;-66
2022/07/30 04:59:08;;;;;;;5.35;4.95;;;;;;;14.53;81.91;101126.34;4994179;27;20025;-67
2022/07/30 05:01:34;;;;;;;4.90;4.60;;;;;;;14.60;81.89;101128.22;4992248;27;20342;-66
2022/07/30 05:03:59;;;;;;;6.78;5.03;;;;;;;14.66;81.75;101120.66;4999612;27;20032;-66
2022/07/30 05:06:25;;;;;;;5.18;4.65;;;;;;;14.70;81.91;101124.69;4995972;27;20029;-67
2022/07/30 05:08:50;;;;;;;5.50;5.00;;;;;;;14.73;81.70;101127.84;4996174;27;20655;-67
2022/07/30 05:11:16;;;;;;;4.88;4.50;;;;;;;14.75;81.81;101125.88;5010759;27;20016;-67
2022/07/30 05:13:47;;;;;;;5.18;4.50;;;;;;;14.71;81.73;101129.84;4998997;27;20019;-67
2022/07/30 05:16:12;;;;;;;4.70;4.40;;;;;;;14.74;81.92;101134.88;4995253;27;20331;-67
2022/07/30 05:18:38;;;;;;;5.35;4.85;;;;;;;14.83;82.04;101137.59;5002181;27;20505;-67
2022/07/30 05:21:03;;;;;;;5.18;4.75;;;;;;;14.90;81.49;101143.97;4993821;27;20305;-67
2022/07/30 05:23:29;;;;;;;5.97;5.07;;;;;;;14.93;81.62;101139.19;5018213;27;20306;-66
2022/07/30 05:25:54;;;;;;;4.68;4.32;;;;;;;14.99;81.80;101135.06;4991189;27;20272;-67
2022/07/30 05:28:21;;;;;;;4.50;4.20;;;;;;;15.08;81.52;101138.59;5014007;27;20242;-67
2022/07/30 05:30:47;;;;;;;4.95;4.55;;;;;;;15.16;81.22;101140.47;5011388;27;20331;-67
2022/07/30 05:33:12;;;;;;;6.03;5.13;;;;;;;15.20;81.80;101133.84;4993353;27;20263;-66
2022/07/30 05:35:37;;;;;;;5.60;4.97;;;;;;;15.25;81.95;101135.03;5012629;27;20111;-66
2022/07/30 05:38:03;;;;;;;8.70;4.88;;;;;;;15.31;81.19;101143.41;5013691;27;20238;-65
2022/07/30 05:40:28;;;;;;;7.45;4.90;;;;;;;15.41;81.34;101139.66;5019529;27;20536;-67
2022/07/30 05:42:54;;;;;;;7.88;5.50;;;;;;;15.51;81.32;101144.00;5031655;27;20021;-67
2022/07/30 05:45:19;;;;;;;7.38;6.63;;;;;;;15.71;81.30;101140.09;5010250;27;20043;-66
2022/07/30 05:47:44;;;;;;;10.45;9.43;;;;;;;15.93;81.49;101135.19;5011574;27;20024;-67
2022/07/30 05:50:11;;;;;;;12.93;10.98;;;;;;;16.13;81.79;101149.09;4993218;27;20039;-67
2022/07/30 05:52:36;;;;;;;14.40;10.52;;;;;;;16.26;81.52;101143.31;5013526;27;20590;-67
2022/07/30 05:55:02;;;;;;;12.18;9.23;;;;;;;16.38;81.10;101152.66;5028069;27;20033;-67
2022/07/30 05:57:27;;;;;;;14.30;10.30;;;;;;;16.44;81.09;101144.00;5062901;27;20028;-67
2022/07/30 05:59:53;;;;;;;16.38;10.98;;;;;;;16.57;80.67;101148.84;5042922;27;20134;-67
2022/07/30 06:02:18;;;;;;;14.02;11.80;;;;;;;16.74;80.94;101154.19;5017673;27;20801;-69
2022/07/30 06:04:44;;;;;;;19.75;13.05;;;;;;;16.78;80.51;101153.69;5008372;27;20349;-67
2022/07/30 06:07:09;;;;;;;13.75;11.90;;;;;;;16.81;80.60;101150.66;5012946;27;20206;-67
2022/07/30 06:09:35;;;;;;;14.88;11.90;;;;;;;16.93;80.45;101150.34;4996767;27;20442;-67
2022/07/30 06:12:00;;;;;;;15.73;12.45;;;;;;;17.03;79.96;101151.00;5015012;27;20017;-66
2022/07/30 06:14:26;;;;;;;15.63;12.43;;;;;;;17.13;79.56;101151.69;4996187;27;20032;-66
2022/07/30 06:16:51;;;;;;;18.00;13.52;;;;;;;17.22;79.24;101160.50;5013573;27;20331;-68
2022/07/30 06:19:17;;;;;;;17.00;12.88;;;;;;;17.35;78.89;101154.63;4994851;27;21497;-67
2022/07/30 06:21:42;;;;;;;16.92;14.18;;;;;;;17.42;78.90;101168.97;5006494;27;20804;-67
2022/07/30 06:24:07;;;;;;;18.02;15.05;;;;;;;17.50;78.92;101163.59;5006972;27;20427;-67
2022/07/30 06:26:33;;;;;;;21.13;14.60;;;;;;;17.57;78.57;101168.25;5010557;27;20344;-67
2022/07/30 06:28:58;;;;;;;18.08;15.13;;;;;;;17.74;78.50;101155.66;5008531;27;20112;-66
2022/07/30 06:31:24;;;;;;;21.67;19.33;;;;;;;17.86;78.34;101160.44;5007097;27;20027;-66
2022/07/30 06:33:49;;;;;;;19.67;17.63;;;;;;;17.91;78.15;101156.44;4998423;27;20017;-67
2022/07/30 06:36:14;;;;;;;22.15;19.42;;;;;;;18.09;77.78;101164.22;5006026;27;20354;-66
2022/07/30 06:38:40;;;;;;;23.27;20.95;;;;;;;18.15;77.48;101164.34;5015144;27;20115;-67
2022/07/30 06:41:06;;;;;;;22.15;19.77;;;;;;;18.22;77.88;101174.34;5007716;27;20055;-67
2022/07/30 06:43:31;;;;;;;17.92;15.82;;;;;;;18.13;75.74;101176.25;4996498;27;20021;-67
2022/07/30 06:45:56;;;;;;;16.55;14.63;;;;;;;18.08;76.41;101174.09;5012126;27;20941;-67
2022/07/30 06:48:22;;;;;;;15.90;13.20;;;;;;;18.19;75.74;101184.41;5025625;27;20008;-67
2022/07/30 06:50:47;;;;;;;17.40;14.57;;;;;;;18.27;75.30;101175.47;5024474;27;20385;-66
2022/07/30 06:53:13;;;;;;;22.00;15.10;;;;;;;18.18;75.50;101176.56;4988341;27;20021;-66
2022/07/30 06:55:39;;;;;;;21.67;18.85;;;;;;;18.25;76.75;101177.53;4997943;27;20016;-67
2022/07/30 06:58:04;;;;;;;23.25;16.75;;;;;;;18.32;76.06;101180.34;5006946;27;20495;-66
2022/07/30 07:00:30;;;;;;;26.42;22.40;;;;;;;18.34;75.83;101189.00;4993001;27;20420;-67
2022/07/30 07:02:55;;;;;;;27.23;21.75;;;;;;;18.42;75.84;101188.97;5005172;27;20293;-67
2022/07/30 07:05:22;;;;;;;21.15;18.80;;;;;;;18.47;75.47;101180.38;5008970;27;20359;-66
2022/07/30 07:07:47;;;;;;;21.85;18.63;;;;;;;18.55;75.60;101191.06;4995240;27;20174;-66
2022/07/30 07:10:13;;;;;;;28.15;21.20;;;;;;;18.53;75.94;101190.41;5015315;27;20305;-66
2022/07/30 07:12:38;;;;;;;22.48;20.15;;;;;;;18.62;76.60;101192.00;5016098;27;20434;-68
2022/07/30 07:15:04;;;;;;;22.13;19.30;;;;;;;18.59;75.57;101194.22;4993581;27;20756;-66
2022/07/30 07:17:30;;;;;;;26.05;21.88;;;;;;;18.51;75.68;101197.78;5005821;27;20780;-67
2022/07/30 07:19:56;;;;;;;24.65;20.65;;;;;;;18.49;75.76;101197.97;5014411;27;20322;-67
2022/07/30 07:22:21;;;;;;;22.75;19.30;;;;;;;18.57;75.47;101209.63;4989683;27;20436;-67
2022/07/30 07:24:47;;;;;;;21.73;16.90;;;;;;;18.70;75.43;101205.34;4991644;27;20304;-68
2022/07/30 07:27:12;;;;;;;22.75;17.77;;;;;;;18.78;74.28;101212.50;5004248;27;20849;-68
2022/07/30 07:29:37;;;;;;;19.48;17.45;;;;;;;18.68;74.33;101210.06;5023444;27;20084;-67
2022/07/30 07:32:03;;;;;;;21.85;17.88;;;;;;;18.77;74.78;101208.16;5002679;27;20081;-67
2022/07/30 07:34:28;;;;;;;26.98;19.67;;;;;;;18.82;74.80;101213.78;5028344;27;20077;-67
2022/07/30 07:36:54;;;;;;;23.08;18.38;;;;;;;19.01;74.32;101209.00;5011908;27;20080;-65
2022/07/30 07:39:19;;;;;;;21.45;17.13;;;;;;;19.13;74.16;101212.91;5022193;27;20016;-66
2022/07/30 07:41:45;;;;;;;21.58;17.88;;;;;;;19.33;73.00;101220.44;5020974;27;20012;-68
2022/07/30 07:44:10;;;;;;;19.73;15.52;;;;;;;19.47;72.44;101210.72;5008470;27;20013;-67
2022/07/30 07:46:36;;;;;;;16.70;14.73;;;;;;;19.62;71.65;101218.81;5023211;27;20040;-68
2022/07/30 07:49:01;;;;;;;16.13;13.52;;;;;;;19.60;70.82;101204.72;5022203;27;20012;-68
2022/07/30 07:51:27;;;;;;;15.73;12.68;;;;;;;19.68;70.81;101210.00;5007454;27;20004;-68
2022/07/30 07:53:52;;;;;;;13.90;11.75;;;;;;;19.72;69.33;101217.47;5022690;27;20197;-68
2022/07/30 07:56:17;;;;;;;13.25;10.68;;;;;;;19.77;68.84;101216.09;4992445;27;20227;-70
2022/07/30 07:58:43;;;;;;;12.02;10.82;;;;;;;19.87;68.95;101220.19;5014357;27;20150;-68
2022/07/30 08:01:08;;;;;;;13.32;11.95;;;;;;;19.96;68.46;101212.03;5017742;27;20541;-68
2022/07/30 08:03:34;;;;;;;13.55;11.93;;;;;;;19.98;67.92;101210.00;5007705;27;20550;-68
2022/07/30 08:06:00;;;;;;;14.00;12.55;;;;;;;20.05;66.82;101208.22;5040956;27;20033;-69
2022/07/30 08:08:25;;;;;;;14.32;12.80;;;;;;;19.80;67.84;101207.69;5041530;27;20123;-68
2022/07/30 08:10:51;;;;;;;16.42;14.65;;;;;;;19.81;67.98;101210.22;5008131;27;20046;-69
2022/07/30 08:13:16;;;;;;;14.90;12.10;;;;;;;19.87;67.83;101205.94;5034138;27;20036;-68
2022/07/30 08:15:42;;;;;;;14.32;11.38;;;;;;;19.82;67.66;101206.50;5048219;27;20172;-68
2022/07/30 08:18:09;;;;;;;11.98;10.00;;;;;;;19.92;67.56;101206.19;5024784;27;20017;-66
2022/07/30 08:20:34;;;;;;;12.13;10.75;;;;;;;20.04;66.82;101220.00;5041125;27;20745;-68
2022/07/30 08:23:00;;;;;;;12.70;10.77;;;;;;;20.17;66.02;101213.97;5022721;27;20016;-67
2022/07/30 08:25:26;;;;;;;10.98;9.88;;;;;;;20.30;66.48;101213.28;4998796;27;20033;-69
2022/07/30 08:27:52;;;;;;;10.68;9.57;;;;;;;20.15;65.15;101210.59;5013307;27;20633;-70
2022/07/30 08:30:17;;;;;;;11.13;9.88;;;;;;;20.16;65.28;101206.91;5002168;27;20529;-67
2022/07/30 08:32:43;;;;;;;11.45;9.90;;;;;;;20.42;64.70;101211.75;5005811;28;20025;-68
2022/07/30 08:35:08;;;;;;;11.60;10.18;;;;;;;20.54;64.27;101210.22;5028883;27;20013;-66
2022/07/30 08:37:33;;;;;;;11.27;8.40;;;;;;;20.72;64.17;101212.50;5017163;28;20749;-67
2022/07/30 08:39:59;;;;;;;9.35;7.80;;;;;;;20.57;62.45;101209.84;5025488;27;20025;-68
2022/07/30 08:42:24;;;;;;;10.73;7.80;;;;;;;20.54;62.52;101204.00;5016780;27;20373;-68
2022/07/30 08:44:51;;;;;;;9.38;8.30;;;;;;;20.45;63.48;101208.69;5015376;28;20025;-68
2022/07/30 08:47:17;;;;;;;9.27;8.07;;;;;;;20.53;63.92;101213.94;5013830;28;20055;-66
2022/07/30 08:49:44;;;;;;;9.98;7.63;;;;;;;20.79;63.75;101209.88;4996841;28;20026;-67
2022/07/30 08:52:10;;;;;;;10.52;7.88;;;;;;;20.99;62.58;101211.91;5009544;28;21005;-68
2022/07/30 08:54:35;;;;;;;9.05;7.38;;;;;;;21.33;62.68;101212.97;5006279;28;20021;-68
2022/07/30 08:57:00;;;;;;;8.75;7.40;;;;;;;21.68;59.65;101215.72;5022351;27;20028;-67
2022/07/30 08:59:26;;;;;;;7.18;6.30;;;;;;;22.12;60.92;101218.00;5032077;28;20017;-65
2022/07/30 09:01:51;;;;;;;9.32;6.75;;;;;;;22.22;60.07;101214.88;5029066;28;20066;-66
2022/07/30 09:04:17;;;;;;;8.20;6.38;;;;;;;22.12;58.57;101217.16;5028045;28;20010;-67
2022/07/30 09:06:43;;;;;;;10.45;5.80;;;;;;;22.01;58.72;101221.28;5013969;28;20346;-68
2022/07/30 09:09:08;;;;;;;8.73;5.78;;;;;;;22.16;58.46;101223.81;5017932;28;20018;-68
2022/07/30 09:11:35;;;;;;;7.35;5.75;;;;;;;22.50;58.04;101222.06;5030042;28;19985;-69
2022/07/30 09:14:11;;;;;;;7.85;5.50;;;;;;;22.81;57.92;101213.38;5038148;28;20009;-69
2022/07/30 09:16:36;;;;;;;11.07;6.40;;;;;;;22.85;55.77;101216.50;5040342;27;20032;-69
2022/07/30 09:19:11;;;;;;;7.82;6.50;;;;;;;22.84;55.62;101214.00;5006493;28;20346;-68
2022/07/30 09:21:36;;;;;;;7.30;5.85;;;;;;;22.66;56.51;101211.91;5010003;28;20022;-68
2022/07/30 09:24:10;;;;;;;9.25;5.93;;;;;;;22.68;56.88;101220.66;4986314;27;20069;-68
2022/07/30 09:27:10;;;;;;;5.97;5.18;;;;;;;22.48;56.47;101218.75;4993777;27;20096;-68
2022/07/30 09:29:36;;;;;;;9.73;5.70;;;;;;;22.88;56.40;101221.47;4953098;28;20018;-68
2022/07/30 09:32:03;;;;;;;9.10;6.50;;;;;;;22.86;54.62;101230.81;5001305;27;20062;-68
2022/07/30 09:34:32;;;;;;;8.30;5.32;;;;;;;23.12;55.29;101222.75;4994793;27;20084;-68
2022/07/30 09:36:59;;;;;;;8.25;6.20;;;;;;;23.57;55.33;101224.78;5021375;27;20120;-68
2022/07/30 09:39:31;;;;;;;7.05;5.38;;;;;;;23.78;55.60;101217.44;4995220;27;20378;-68
2022/07/30 09:41:57;;;;;;;6.25;4.50;;;;;;;23.62;54.39;101222.28;5021900;27;20013;-68
2022/07/30 09:44:23;;;;;;;5.97;5.40;;;;;;;23.30;54.07;101224.00;5017913;27;20436;-67
2022/07/30 09:46:52;;;;;;;9.10;6.00;;;;;;;22.97;54.68;101214.84;5023684;27;20817;-68
2022/07/30 09:49:22;;;;;;;6.72;6.00;;;;;;;23.19;55.12;101205.72;5027595;27;20001;-68
2022/07/30 09:51:48;;;;;;;7.95;5.78;;;;;;;24.07;55.32;101202.59;5029204;27;20836;-67
2022/07/30 09:54:14;;;;;;;10.80;6.63;;;;;;;24.55;51.96;101209.41;5011228;27;20341;-68
2022/07/30 09:56:39;;;;;;;10.63;5.63;;;;;;;23.90;51.70;101215.78;5010083;27;20377;-68
2022/07/30 09:59:06;;;;;;;6.10;5.50;;;;;;;23.45;51.63;101215.66;4991730;27;20681;-68
2022/07/30 10:01:51;;;;;;;7.03;5.18;;;;;;;24.00;51.66;101218.84;5009321;27;20041;-68
2022/07/30 10:04:27;;;;;;;6.20;5.60;;;;;;;24.58;50.12;101214.38;5027650;27;20012;-67
2022/07/30 10:06:52;;;;;;;7.60;5.38;;;;;;;24.94;49.37;101220.97;4991754;27;20059;-68
2022/07/30 10:09:31;;;;;;;8.80;6.25;;;;;;;25.48;47.19;101212.38;5008648;27;20923;-68
2022/07/30 10:11:57;;;;;;;7.45;5.90;;;;;;;25.50;48.18;101218.44;5024809;27;20940;-65
2022/07/30 10:14:24;;;;;;;8.73;5.80;;;;;;;25.85;48.47;101215.13;5012301;27;20253;-65
2022/07/30 10:16:50;;;;;;;12.27;5.70;;;;;;;25.57;46.89;101218.38;4989826;27;20044;-65
